METAR Data
IDs: Format: Raw Decoded Include TAF

Data at: 0741 UTC 01 Aug 2021

LSZL 010720Z AUTO 08003KT 030V120 9999NDV SCT061 BKN079 20/15 Q1006 RMK